Kellysville, West Virginia
Current Conditions -  °F | °C
As of 8:52 AM on Sunday 23 Nov 2014 (Local Time) from KBLF Reporting Station
Clear Clear  
Wind Chill: 44°   Ceiling: Unl
Heat Index: 49°   Visibility: 10mi
Dew Point: 36°   Wind: 13mph
Humidity: 61%   Direction: 160°SSE
Pressure: 30.14"   Gusts: 21mph
Location:  37.34°N, 80.93°W
Report Text: KBLF 231352Z AUTO 16011G18KT 10SM CLR 09/02 A3014 RMK AO2 SLP202 T00940022
Loading
Personal Weather Stations






























Interactive Weather Map New forecast layout! Learn more

10-Day Weather Forecast

Advertisements
Track Severe Weather on mobile